sensor_id;sensor_type;location;lat;lon;timestamp;temperature;humidity
2603;DHT22;1311;47.966;7.958;2022-09-29T00:01:24;9.30;99.90
2603;DHT22;1311;47.966;7.958;2022-09-29T00:03:50;9.30;99.90
2603;DHT22;1311;47.966;7.958;2022-09-29T00:06:17;9.40;99.90
2603;DHT22;1311;47.966;7.958;2022-09-29T00:08:44;9.40;99.90
2603;DHT22;1311;47.966;7.958;2022-09-29T00:11:13;9.40;99.90
2603;DHT22;1311;47.966;7.958;2022-09-29T00:13:41;9.40;99.90
2603;DHT22;1311;47.966;7.958;2022-09-29T00:16:08;9.40;99.90
2603;DHT22;1311;47.966;7.958;2022-09-29T00:18:35;9.50;99.90
2603;DHT22;1311;47.966;7.958;2022-09-29T00:21:02;9.40;99.90
2603;DHT22;1311;47.966;7.958;2022-09-29T00:23:29;9.50;99.90
2603;DHT22;1311;47.966;7.958;2022-09-29T00:26:01;9.50;99.90
2603;DHT22;1311;47.966;7.958;2022-09-29T00:28:29;9.40;99.90
2603;DHT22;1311;47.966;7.958;2022-09-29T00:30:57;9.50;99.90
2603;DHT22;1311;47.966;7.958;2022-09-29T00:33:24;9.50;99.90
2603;DHT22;1311;47.966;7.958;2022-09-29T00:35:58;9.50;99.90
2603;DHT22;1311;47.966;7.958;2022-09-29T00:38:25;9.50;99.90
2603;DHT22;1311;47.966;7.958;2022-09-29T00:40:52;9.50;99.90
2603;DHT22;1311;47.966;7.958;2022-09-29T00:43:20;9.60;99.90
2603;DHT22;1311;47.966;7.958;2022-09-29T00:45:48;9.50;99.90
2603;DHT22;1311;47.966;7.958;2022-09-29T00:48:16;9.60;99.90
2603;DHT22;1311;47.966;7.958;2022-09-29T00:50:47;9.60;99.90
2603;DHT22;1311;47.966;7.958;2022-09-29T00:53:15;9.70;99.90
2603;DHT22;1311;47.966;7.958;2022-09-29T00:55:45;9.60;99.90
2603;DHT22;1311;47.966;7.958;2022-09-29T00:58:19;9.60;99.90
2603;DHT22;1311;47.966;7.958;2022-09-29T01:00:49;9.60;99.90
2603;DHT22;1311;47.966;7.958;2022-09-29T01:03:16;9.60;99.90
2603;DHT22;1311;47.966;7.958;2022-09-29T01:05:47;9.60;99.90
2603;DHT22;1311;47.966;7.958;2022-09-29T01:08:15;9.60;99.90
2603;DHT22;1311;47.966;7.958;2022-09-29T01:10:42;9.60;99.90
2603;DHT22;1311;47.966;7.958;2022-09-29T01:13:10;9.50;99.90
2603;DHT22;1311;47.966;7.958;2022-09-29T01:15:37;9.50;99.90
2603;DHT22;1311;47.966;7.958;2022-09-29T01:18:05;9.50;99.90
2603;DHT22;1311;47.966;7.958;2022-09-29T01:20:32;9.50;99.90
2603;DHT22;1311;47.966;7.958;2022-09-29T01:23:12;9.50;99.90
2603;DHT22;1311;47.966;7.958;2022-09-29T01:25:47;9.50;99.90
2603;DHT22;1311;47.966;7.958;2022-09-29T01:28:26;9.60;99.90
2603;DHT22;1311;47.966;7.958;2022-09-29T01:31:02;9.60;99.90
2603;DHT22;1311;47.966;7.958;2022-09-29T01:33:33;9.60;99.90
2603;DHT22;1311;47.966;7.958;2022-09-29T01:36:04;9.60;99.90
2603;DHT22;1311;47.966;7.958;2022-09-29T01:38:41;9.60;99.90
2603;DHT22;1311;47.966;7.958;2022-09-29T01:41:11;9.70;99.90
2603;DHT22;1311;47.966;7.958;2022-09-29T01:43:41;9.60;99.90
2603;DHT22;1311;47.966;7.958;2022-09-29T01:46:14;9.70;99.90
2603;DHT22;1311;47.966;7.958;2022-09-29T01:48:42;9.60;99.90
2603;DHT22;1311;47.966;7.958;2022-09-29T01:51:11;9.50;99.90
2603;DHT22;1311;47.966;7.958;2022-09-29T01:53:39;9.50;99.90
2603;DHT22;1311;47.966;7.958;2022-09-29T01:56:07;9.50;99.90
2603;DHT22;1311;47.966;7.958;2022-09-29T01:58:36;9.50;99.90
2603;DHT22;1311;47.966;7.958;2022-09-29T02:01:05;9.50;99.90
2603;DHT22;1311;47.966;7.958;2022-09-29T02:03:36;9.50;99.90
2603;DHT22;1311;47.966;7.958;2022-09-29T02:06:06;9.40;99.90
2603;DHT22;1311;47.966;7.958;2022-09-29T02:08:35;9.50;99.90
2603;DHT22;1311;47.966;7.958;2022-09-29T02:11:04;9.40;99.90
2603;DHT22;1311;47.966;7.958;2022-09-29T02:13:31;9.40;99.90
2603;DHT22;1311;47.966;7.958;2022-09-29T02:16:00;9.40;99.90
2603;DHT22;1311;47.966;7.958;2022-09-29T02:18:28;9.40;99.90
2603;DHT22;1311;47.966;7.958;2022-09-29T02:20:58;9.40;99.90
2603;DHT22;1311;47.966;7.958;2022-09-29T02:23:25;9.40;99.90
2603;DHT22;1311;47.966;7.958;2022-09-29T02:25:51;9.30;99.90
2603;DHT22;1311;47.966;7.958;2022-09-29T02:28:19;9.40;99.90
2603;DHT22;1311;47.966;7.958;2022-09-29T02:30:46;9.40;99.90
2603;DHT22;1311;47.966;7.958;2022-09-29T02:33:18;9.30;99.90
2603;DHT22;1311;47.966;7.958;2022-09-29T02:35:49;9.20;99.90
2603;DHT22;1311;47.966;7.958;2022-09-29T02:38:19;9.30;99.90
2603;DHT22;1311;47.966;7.958;2022-09-29T02:40:48;9.20;99.90
2603;DHT22;1311;47.966;7.958;2022-09-29T02:43:31;9.20;99.90
2603;DHT22;1311;47.966;7.958;2022-09-29T02:46:06;9.10;99.90
2603;DHT22;1311;47.966;7.958;2022-09-29T02:51:21;9.00;99.90
2603;DHT22;1311;47.966;7.958;2022-09-29T02:53:57;9.00;99.90
2603;DHT22;1311;47.966;7.958;2022-09-29T02:56:27;9.00;99.90
2603;DHT22;1311;47.966;7.958;2022-09-29T02:58:56;8.80;99.90
2603;DHT22;1311;47.966;7.958;2022-09-29T03:01:25;9.20;99.90
2603;DHT22;1311;47.966;7.958;2022-09-29T03:03:51;8.90;99.90
2603;DHT22;1311;47.966;7.958;2022-09-29T03:06:18;9.60;99.90
2603;DHT22;1311;47.966;7.958;2022-09-29T03:08:45;8.80;99.90
2603;DHT22;1311;47.966;7.958;2022-09-29T03:11:13;9.10;99.90
2603;DHT22;1311;47.966;7.958;2022-09-29T03:13:40;8.80;99.90
2603;DHT22;1311;47.966;7.958;2022-09-29T03:16:07;8.80;99.90
2603;DHT22;1311;47.966;7.958;2022-09-29T03:18:33;8.80;99.90
2603;DHT22;1311;47.966;7.958;2022-09-29T03:21:00;8.80;99.90
2603;DHT22;1311;47.966;7.958;2022-09-29T03:23:26;8.80;99.90
2603;DHT22;1311;47.966;7.958;2022-09-29T03:25:53;8.80;99.90
2603;DHT22;1311;47.966;7.958;2022-09-29T03:28:21;8.80;99.90
2603;DHT22;1311;47.966;7.958;2022-09-29T03:30:47;8.70;99.90
2603;DHT22;1311;47.966;7.958;2022-09-29T03:33:14;8.80;99.90
2603;DHT22;1311;47.966;7.958;2022-09-29T03:35:42;8.70;99.90
2603;DHT22;1311;47.966;7.958;2022-09-29T03:38:09;8.80;99.90
2603;DHT22;1311;47.966;7.958;2022-09-29T03:40:35;8.70;99.90
2603;DHT22;1311;47.966;7.958;2022-09-29T03:43:02;8.60;99.90
2603;DHT22;1311;47.966;7.958;2022-09-29T03:45:30;8.60;99.90
2603;DHT22;1311;47.966;7.958;2022-09-29T03:47:57;8.70;99.90
2603;DHT22;1311;47.966;7.958;2022-09-29T03:50:23;8.70;99.90
2603;DHT22;1311;47.966;7.958;2022-09-29T03:52:50;8.70;99.90
2603;DHT22;1311;47.966;7.958;2022-09-29T03:55:16;8.60;99.90
2603;DHT22;1311;47.966;7.958;2022-09-29T03:57:44;8.70;99.90
2603;DHT22;1311;47.966;7.958;2022-09-29T04:00:11;8.70;99.90
2603;DHT22;1311;47.966;7.958;2022-09-29T04:02:39;8.80;99.90
2603;DHT22;1311;47.966;7.958;2022-09-29T04:05:06;8.80;99.90
2603;DHT22;1311;47.966;7.958;2022-09-29T04:07:33;8.80;99.90
2603;DHT22;1311;47.966;7.958;2022-09-29T04:09:59;8.70;99.90
2603;DHT22;1311;47.966;7.958;2022-09-29T04:12:26;8.80;99.90
2603;DHT22;1311;47.966;7.958;2022-09-29T04:14:52;8.80;99.90
2603;DHT22;1311;47.966;7.958;2022-09-29T04:17:19;8.90;99.90
2603;DHT22;1311;47.966;7.958;2022-09-29T04:19:47;8.90;99.90
2603;DHT22;1311;47.966;7.958;2022-09-29T04:22:14;8.90;99.90
2603;DHT22;1311;47.966;7.958;2022-09-29T04:24:42;9.00;99.90
2603;DHT22;1311;47.966;7.958;2022-09-29T04:27:09;8.90;99.90
2603;DHT22;1311;47.966;7.958;2022-09-29T04:29:36;9.00;99.90
2603;DHT22;1311;47.966;7.958;2022-09-29T04:32:02;9.00;99.90
2603;DHT22;1311;47.966;7.958;2022-09-29T04:34:30;9.00;99.90
2603;DHT22;1311;47.966;7.958;2022-09-29T04:36:58;9.00;99.90
2603;DHT22;1311;47.966;7.958;2022-09-29T04:39:24;8.90;99.90
2603;DHT22;1311;47.966;7.958;2022-09-29T04:41:51;9.00;99.90
2603;DHT22;1311;47.966;7.958;2022-09-29T04:44:17;8.90;99.90
2603;DHT22;1311;47.966;7.958;2022-09-29T04:46:48;9.00;99.90
2603;DHT22;1311;47.966;7.958;2022-09-29T04:49:14;9.00;99.90
2603;DHT22;1311;47.966;7.958;2022-09-29T04:51:41;8.90;99.90
2603;DHT22;1311;47.966;7.958;2022-09-29T04:54:09;8.90;99.90
2603;DHT22;1311;47.966;7.958;2022-09-29T04:56:35;8.80;99.90
2603;DHT22;1311;47.966;7.958;2022-09-29T04:59:02;8.90;99.90
2603;DHT22;1311;47.966;7.958;2022-09-29T05:01:29;8.90;99.90
2603;DHT22;1311;47.966;7.958;2022-09-29T05:03:55;8.90;99.90
2603;DHT22;1311;47.966;7.958;2022-09-29T05:06:22;8.80;99.90
2603;DHT22;1311;47.966;7.958;2022-09-29T05:08:49;8.90;99.90
2603;DHT22;1311;47.966;7.958;2022-09-29T05:11:17;8.90;99.90
2603;DHT22;1311;47.966;7.958;2022-09-29T05:13:43;8.80;99.90
2603;DHT22;1311;47.966;7.958;2022-09-29T05:16:13;8.80;99.90
2603;DHT22;1311;47.966;7.958;2022-09-29T05:18:39;8.90;99.90
2603;DHT22;1311;47.966;7.958;2022-09-29T05:21:07;8.90;99.90
2603;DHT22;1311;47.966;7.958;2022-09-29T05:23:34;8.90;99.90
2603;DHT22;1311;47.966;7.958;2022-09-29T05:26:00;8.80;99.90
2603;DHT22;1311;47.966;7.958;2022-09-29T05:28:29;8.80;99.90
2603;DHT22;1311;47.966;7.958;2022-09-29T05:30:59;8.80;99.90
2603;DHT22;1311;47.966;7.958;2022-09-29T05:33:26;8.80;99.90
2603;DHT22;1311;47.966;7.958;2022-09-29T05:35:53;8.80;99.90
2603;DHT22;1311;47.966;7.958;2022-09-29T05:38:20;8.80;99.90
2603;DHT22;1311;47.966;7.958;2022-09-29T05:40:47;8.90;99.90
2603;DHT22;1311;47.966;7.958;2022-09-29T05:43:13;8.90;99.90
2603;DHT22;1311;47.966;7.958;2022-09-29T05:45:41;8.90;99.90
2603;DHT22;1311;47.966;7.958;2022-09-29T05:48:08;8.90;99.90
2603;DHT22;1311;47.966;7.958;2022-09-29T05:50:35;8.90;99.90
2603;DHT22;1311;47.966;7.958;2022-09-29T05:53:05;8.90;99.90
2603;DHT22;1311;47.966;7.958;2022-09-29T05:55:32;8.90;99.90
2603;DHT22;1311;47.966;7.958;2022-09-29T05:57:59;8.90;99.90
2603;DHT22;1311;47.966;7.958;2022-09-29T06:00:25;8.90;99.90
2603;DHT22;1311;47.966;7.958;2022-09-29T06:02:53;8.90;99.90
2603;DHT22;1311;47.966;7.958;2022-09-29T06:05:20;8.90;99.90
2603;DHT22;1311;47.966;7.958;2022-09-29T06:07:47;9.00;99.90
2603;DHT22;1311;47.966;7.958;2022-09-29T06:10:13;9.10;99.90
2603;DHT22;1311;47.966;7.958;2022-09-29T06:12:40;9.00;99.90
2603;DHT22;1311;47.966;7.958;2022-09-29T06:15:07;9.10;99.90
2603;DHT22;1311;47.966;7.958;2022-09-29T06:17:34;9.00;99.90
2603;DHT22;1311;47.966;7.958;2022-09-29T06:20:02;9.10;99.90
2603;DHT22;1311;47.966;7.958;2022-09-29T06:22:29;9.10;99.90
2603;DHT22;1311;47.966;7.958;2022-09-29T06:24:56;9.10;99.90
2603;DHT22;1311;47.966;7.958;2022-09-29T06:27:22;9.10;99.90
2603;DHT22;1311;47.966;7.958;2022-09-29T06:29:49;9.20;99.90
2603;DHT22;1311;47.966;7.958;2022-09-29T06:32:15;9.20;99.90
2603;DHT22;1311;47.966;7.958;2022-09-29T06:34:42;9.30;99.90
2603;DHT22;1311;47.966;7.958;2022-09-29T06:37:25;9.20;99.90
2603;DHT22;1311;47.966;7.958;2022-09-29T06:40:00;9.30;99.90
2603;DHT22;1311;47.966;7.958;2022-09-29T06:42:32;9.20;99.90
2603;DHT22;1311;47.966;7.958;2022-09-29T06:44:59;9.10;99.90
2603;DHT22;1311;47.966;7.958;2022-09-29T06:47:25;9.20;99.90
2603;DHT22;1311;47.966;7.958;2022-09-29T06:49:52;9.40;99.90
2603;DHT22;1311;47.966;7.958;2022-09-29T06:52:19;9.40;99.90
2603;DHT22;1311;47.966;7.958;2022-09-29T06:54:46;9.50;99.90
2603;DHT22;1311;47.966;7.958;2022-09-29T06:57:13;9.60;99.90
2603;DHT22;1311;47.966;7.958;2022-09-29T06:59:40;9.70;99.90
2603;DHT22;1311;47.966;7.958;2022-09-29T07:02:07;9.90;99.90
2603;DHT22;1311;47.966;7.958;2022-09-29T07:04:34;10.10;99.90
2603;DHT22;1311;47.966;7.958;2022-09-29T07:07:01;10.20;99.90
2603;DHT22;1311;47.966;7.958;2022-09-29T07:09:28;10.40;99.90
2603;DHT22;1311;47.966;7.958;2022-09-29T07:11:56;10.50;99.90
2603;DHT22;1311;47.966;7.958;2022-09-29T07:14:23;10.60;99.90
2603;DHT22;1311;47.966;7.958;2022-09-29T07:16:50;10.70;99.90
2603;DHT22;1311;47.966;7.958;2022-09-29T07:19:17;10.70;99.90
2603;DHT22;1311;47.966;7.958;2022-09-29T07:21:44;10.80;99.90
2603;DHT22;1311;47.966;7.958;2022-09-29T07:24:10;10.80;99.90
2603;DHT22;1311;47.966;7.958;2022-09-29T07:26:37;10.90;99.90
2603;DHT22;1311;47.966;7.958;2022-09-29T07:29:05;10.90;99.90
2603;DHT22;1311;47.966;7.958;2022-09-29T07:31:32;10.90;99.90
2603;DHT22;1311;47.966;7.958;2022-09-29T07:33:58;10.90;99.90
2603;DHT22;1311;47.966;7.958;2022-09-29T07:36:25;11.10;99.90
2603;DHT22;1311;47.966;7.958;2022-09-29T07:38:52;11.10;99.90
2603;DHT22;1311;47.966;7.958;2022-09-29T07:41:19;11.10;99.90
2603;DHT22;1311;47.966;7.958;2022-09-29T07:43:46;11.20;99.90
2603;DHT22;1311;47.966;7.958;2022-09-29T07:46:14;11.20;99.90
2603;DHT22;1311;47.966;7.958;2022-09-29T07:48:41;11.30;99.90
2603;DHT22;1311;47.966;7.958;2022-09-29T07:51:09;11.40;99.90
2603;DHT22;1311;47.966;7.958;2022-09-29T07:53:36;11.40;99.90
2603;DHT22;1311;47.966;7.958;2022-09-29T07:56:03;11.40;99.90
2603;DHT22;1311;47.966;7.958;2022-09-29T07:58:30;11.40;99.90
2603;DHT22;1311;47.966;7.958;2022-09-29T08:00:57;11.50;99.90
2603;DHT22;1311;47.966;7.958;2022-09-29T08:03:25;11.50;99.90
2603;DHT22;1311;47.966;7.958;2022-09-29T08:05:54;11.60;99.90
2603;DHT22;1311;47.966;7.958;2022-09-29T08:08:22;11.60;99.90
2603;DHT22;1311;47.966;7.958;2022-09-29T08:10:48;11.60;99.90
2603;DHT22;1311;47.966;7.958;2022-09-29T08:13:15;11.80;99.90
2603;DHT22;1311;47.966;7.958;2022-09-29T08:15:41;11.80;99.90
2603;DHT22;1311;47.966;7.958;2022-09-29T08:18:10;11.90;99.90
2603;DHT22;1311;47.966;7.958;2022-09-29T08:20:38;11.80;99.90
2603;DHT22;1311;47.966;7.958;2022-09-29T08:23:04;11.80;99.90
2603;DHT22;1311;47.966;7.958;2022-09-29T08:25:31;11.90;99.90
2603;DHT22;1311;47.966;7.958;2022-09-29T08:27:59;11.90;99.90
2603;DHT22;1311;47.966;7.958;2022-09-29T08:30:26;11.90;99.90
2603;DHT22;1311;47.966;7.958;2022-09-29T08:32:53;12.00;99.90
2603;DHT22;1311;47.966;7.958;2022-09-29T08:35:19;12.10;99.90
2603;DHT22;1311;47.966;7.958;2022-09-29T08:37:48;12.00;99.90
2603;DHT22;1311;47.966;7.958;2022-09-29T08:40:14;12.20;99.90
2603;DHT22;1311;47.966;7.958;2022-09-29T08:42:44;12.30;99.90
2603;DHT22;1311;47.966;7.958;2022-09-29T08:45:13;12.30;99.90
2603;DHT22;1311;47.966;7.958;2022-09-29T08:47:44;12.30;99.90
2603;DHT22;1311;47.966;7.958;2022-09-29T08:50:12;12.40;99.90
2603;DHT22;1311;47.966;7.958;2022-09-29T08:52:41;12.40;99.90
2603;DHT22;1311;47.966;7.958;2022-09-29T08:55:23;12.50;99.90
2603;DHT22;1311;47.966;7.958;2022-09-29T08:57:52;12.50;99.90
2603;DHT22;1311;47.966;7.958;2022-09-29T09:00:20;12.50;99.90
2603;DHT22;1311;47.966;7.958;2022-09-29T09:03:02;12.50;99.90
2603;DHT22;1311;47.966;7.958;2022-09-29T09:05:36;12.40;99.90
2603;DHT22;1311;47.966;7.958;2022-09-29T09:08:09;12.60;99.90
2603;DHT22;1311;47.966;7.958;2022-09-29T09:10:42;12.70;99.90
2603;DHT22;1311;47.966;7.958;2022-09-29T09:13:15;12.60;99.90
2603;DHT22;1311;47.966;7.958;2022-09-29T09:15:46;12.70;99.90
2603;DHT22;1311;47.966;7.958;2022-09-29T09:18:22;12.60;99.90
2603;DHT22;1311;47.966;7.958;2022-09-29T09:20:53;12.60;99.90
2603;DHT22;1311;47.966;7.958;2022-09-29T09:23:22;12.50;99.90
2603;DHT22;1311;47.966;7.958;2022-09-29T09:25:52;12.50;99.90
2603;DHT22;1311;47.966;7.958;2022-09-29T09:28:21;12.50;99.90
2603;DHT22;1311;47.966;7.958;2022-09-29T09:30:49;12.60;99.90
2603;DHT22;1311;47.966;7.958;2022-09-29T09:33:21;12.60;99.90
2603;DHT22;1311;47.966;7.958;2022-09-29T09:35:48;12.60;99.90
2603;DHT22;1311;47.966;7.958;2022-09-29T09:38:17;12.50;99.90
2603;DHT22;1311;47.966;7.958;2022-09-29T09:40:47;12.70;99.90
2603;DHT22;1311;47.966;7.958;2022-09-29T09:43:18;12.80;99.90
2603;DHT22;1311;47.966;7.958;2022-09-29T09:45:48;12.90;99.90
2603;DHT22;1311;47.966;7.958;2022-09-29T09:48:18;13.00;99.90
2603;DHT22;1311;47.966;7.958;2022-09-29T09:50:46;13.20;99.90
2603;DHT22;1311;47.966;7.958;2022-09-29T09:53:15;13.30;99.90
2603;DHT22;1311;47.966;7.958;2022-09-29T09:55:44;13.30;99.90
2603;DHT22;1311;47.966;7.958;2022-09-29T09:58:19;13.50;99.90
2603;DHT22;1311;47.966;7.958;2022-09-29T10:00:50;13.50;99.90
2603;DHT22;1311;47.966;7.958;2022-09-29T10:03:17;13.50;99.90
2603;DHT22;1311;47.966;7.958;2022-09-29T10:05:44;13.60;99.90
2603;DHT22;1311;47.966;7.958;2022-09-29T10:08:14;13.50;99.90
2603;DHT22;1311;47.966;7.958;2022-09-29T10:10:42;13.50;99.90
2603;DHT22;1311;47.966;7.958;2022-09-29T10:13:09;13.50;99.90
2603;DHT22;1311;47.966;7.958;2022-09-29T10:15:39;13.70;99.90
2603;DHT22;1311;47.966;7.958;2022-09-29T10:18:10;13.70;99.90
2603;DHT22;1311;47.966;7.958;2022-09-29T10:20:38;13.70;99.90
2603;DHT22;1311;47.966;7.958;2022-09-29T10:23:25;13.90;99.90
2603;DHT22;1311;47.966;7.958;2022-09-29T10:25:53;13.80;99.90
2603;DHT22;1311;47.966;7.958;2022-09-29T10:28:20;13.90;99.90
2603;DHT22;1311;47.966;7.958;2022-09-29T10:30:49;13.80;99.90
2603;DHT22;1311;47.966;7.958;2022-09-29T10:33:16;13.70;99.90
2603;DHT22;1311;47.966;7.958;2022-09-29T10:35:44;13.70;99.90
2603;DHT22;1311;47.966;7.958;2022-09-29T10:38:15;13.70;99.90
2603;DHT22;1311;47.966;7.958;2022-09-29T10:40:52;13.80;99.90
2603;DHT22;1311;47.966;7.958;2022-09-29T10:43:21;13.80;99.90
2603;DHT22;1311;47.966;7.958;2022-09-29T10:45:50;13.90;99.90
2603;DHT22;1311;47.966;7.958;2022-09-29T10:48:22;14.00;99.90
2603;DHT22;1311;47.966;7.958;2022-09-29T10:50:50;13.90;99.90
2603;DHT22;1311;47.966;7.958;2022-09-29T10:53:18;14.00;99.90
2603;DHT22;1311;47.966;7.958;2022-09-29T10:55:47;14.20;99.90
2603;DHT22;1311;47.966;7.958;2022-09-29T10:58:18;14.30;99.90
2603;DHT22;1311;47.966;7.958;2022-09-29T11:00:45;14.30;99.90
2603;DHT22;1311;47.966;7.958;2022-09-29T11:03:17;14.30;99.90
2603;DHT22;1311;47.966;7.958;2022-09-29T11:05:49;14.10;99.90
2603;DHT22;1311;47.966;7.958;2022-09-29T11:08:16;14.00;99.90
2603;DHT22;1311;47.966;7.958;2022-09-29T11:10:45;14.10;99.90
2603;DHT22;1311;47.966;7.958;2022-09-29T11:13:31;14.30;99.90
2603;DHT22;1311;47.966;7.958;2022-09-29T11:16:02;14.30;99.90
2603;DHT22;1311;47.966;7.958;2022-09-29T11:18:31;14.30;99.90
2603;DHT22;1311;47.966;7.958;2022-09-29T11:21:00;14.30;99.90
2603;DHT22;1311;47.966;7.958;2022-09-29T11:23:31;14.30;99.90
2603;DHT22;1311;47.966;7.958;2022-09-29T11:26:10;14.40;99.90
2603;DHT22;1311;47.966;7.958;2022-09-29T11:28:46;14.50;99.90
2603;DHT22;1311;47.966;7.958;2022-09-29T11:31:21;14.50;99.90
2603;DHT22;1311;47.966;7.958;2022-09-29T11:33:52;14.60;99.90
2603;DHT22;1311;47.966;7.958;2022-09-29T11:36:24;14.70;99.90
2603;DHT22;1311;47.966;7.958;2022-09-29T11:38:56;14.80;99.90
2603;DHT22;1311;47.966;7.958;2022-09-29T11:41:32;14.90;99.90
2603;DHT22;1311;47.966;7.958;2022-09-29T11:44:03;14.70;99.90
2603;DHT22;1311;47.966;7.958;2022-09-29T11:46:36;14.50;99.90
2603;DHT22;1311;47.966;7.958;2022-09-29T11:49:14;14.50;99.90
2603;DHT22;1311;47.966;7.958;2022-09-29T11:51:50;14.50;99.90
2603;DHT22;1311;47.966;7.958;2022-09-29T11:54:22;14.40;99.90
2603;DHT22;1311;47.966;7.958;2022-09-29T11:56:57;14.40;99.90
2603;DHT22;1311;47.966;7.958;2022-09-29T11:59:32;14.50;99.90
2603;DHT22;1311;47.966;7.958;2022-09-29T12:02:08;14.50;99.90
2603;DHT22;1311;47.966;7.958;2022-09-29T12:04:43;14.50;99.90
2603;DHT22;1311;47.966;7.958;2022-09-29T12:07:20;14.70;99.90
2603;DHT22;1311;47.966;7.958;2022-09-29T12:09:57;14.70;99.90
2603;DHT22;1311;47.966;7.958;2022-09-29T12:12:29;14.50;99.90
2603;DHT22;1311;47.966;7.958;2022-09-29T12:15:10;14.40;99.90
2603;DHT22;1311;47.966;7.958;2022-09-29T12:17:42;14.50;99.90
2603;DHT22;1311;47.966;7.958;2022-09-29T12:20:15;14.40;99.90
2603;DHT22;1311;47.966;7.958;2022-09-29T12:22:44;14.20;99.90
2603;DHT22;1311;47.966;7.958;2022-09-29T12:25:12;14.20;99.90
2603;DHT22;1311;47.966;7.958;2022-09-29T12:27:39;14.10;99.90
2603;DHT22;1311;47.966;7.958;2022-09-29T12:30:13;14.20;99.90
2603;DHT22;1311;47.966;7.958;2022-09-29T12:32:41;14.00;99.90
2603;DHT22;1311;47.966;7.958;2022-09-29T12:35:10;14.10;99.90
2603;DHT22;1311;47.966;7.958;2022-09-29T12:37:40;14.20;99.90
2603;DHT22;1311;47.966;7.958;2022-09-29T12:40:12;14.00;99.90
2603;DHT22;1311;47.966;7.958;2022-09-29T12:42:46;14.10;99.90
2603;DHT22;1311;47.966;7.958;2022-09-29T12:45:18;14.30;99.90
2603;DHT22;1311;47.966;7.958;2022-09-29T12:47:50;14.30;99.90
2603;DHT22;1311;47.966;7.958;2022-09-29T12:50:21;14.40;99.90
2603;DHT22;1311;47.966;7.958;2022-09-29T12:52:53;14.50;99.90
2603;DHT22;1311;47.966;7.958;2022-09-29T12:55:23;14.50;99.90
2603;DHT22;1311;47.966;7.958;2022-09-29T12:57:53;14.60;99.90
2603;DHT22;1311;47.966;7.958;2022-09-29T13:00:22;14.50;99.90
2603;DHT22;1311;47.966;7.958;2022-09-29T13:03:02;14.50;99.90
2603;DHT22;1311;47.966;7.958;2022-09-29T13:05:40;14.50;99.90
2603;DHT22;1311;47.966;7.958;2022-09-29T13:08:26;14.50;99.90
2603;DHT22;1311;47.966;7.958;2022-09-29T13:11:09;14.60;99.90
2603;DHT22;1311;47.966;7.958;2022-09-29T13:13:49;14.60;99.90
2603;DHT22;1311;47.966;7.958;2022-09-29T13:16:20;14.60;99.90
2603;DHT22;1311;47.966;7.958;2022-09-29T13:19:02;14.60;99.90
2603;DHT22;1311;47.966;7.958;2022-09-29T13:21:31;14.60;99.90
2603;DHT22;1311;47.966;7.958;2022-09-29T13:24:07;14.70;99.90
2603;DHT22;1311;47.966;7.958;2022-09-29T13:26:40;14.80;99.90
2603;DHT22;1311;47.966;7.958;2022-09-29T13:29:11;14.70;99.90
2603;DHT22;1311;47.966;7.958;2022-09-29T13:31:39;14.70;99.90
2603;DHT22;1311;47.966;7.958;2022-09-29T13:34:16;14.70;99.90
2603;DHT22;1311;47.966;7.958;2022-09-29T13:36:43;14.70;99.90
2603;DHT22;1311;47.966;7.958;2022-09-29T13:39:18;14.60;99.90
2603;DHT22;1311;47.966;7.958;2022-09-29T13:41:46;14.70;99.90
2603;DHT22;1311;47.966;7.958;2022-09-29T13:44:22;14.70;99.90
2603;DHT22;1311;47.966;7.958;2022-09-29T13:46:49;14.70;99.90
2603;DHT22;1311;47.966;7.958;2022-09-29T13:49:24;14.70;99.90
2603;DHT22;1311;47.966;7.958;2022-09-29T13:51:52;14.60;99.90
2603;DHT22;1311;47.966;7.958;2022-09-29T13:54:21;14.50;99.90
2603;DHT22;1311;47.966;7.958;2022-09-29T13:56:49;14.40;99.90
2603;DHT22;1311;47.966;7.958;2022-09-29T13:59:18;14.40;99.90
2603;DHT22;1311;47.966;7.958;2022-09-29T14:01:46;14.30;99.90
2603;DHT22;1311;47.966;7.958;2022-09-29T14:04:34;14.30;99.90
2603;DHT22;1311;47.966;7.958;2022-09-29T14:07:04;14.40;99.90
2603;DHT22;1311;47.966;7.958;2022-09-29T14:09:34;14.40;99.90
2603;DHT22;1311;47.966;7.958;2022-09-29T14:12:03;14.40;99.90
2603;DHT22;1311;47.966;7.958;2022-09-29T14:14:33;14.40;99.90
2603;DHT22;1311;47.966;7.958;2022-09-29T14:17:02;14.30;99.90
2603;DHT22;1311;47.966;7.958;2022-09-29T14:19:34;14.30;99.90
2603;DHT22;1311;47.966;7.958;2022-09-29T14:22:02;14.30;99.90
2603;DHT22;1311;47.966;7.958;2022-09-29T14:24:44;14.30;99.90
2603;DHT22;1311;47.966;7.958;2022-09-29T14:27:22;14.30;99.90
2603;DHT22;1311;47.966;7.958;2022-09-29T14:29:52;14.40;99.90
2603;DHT22;1311;47.966;7.958;2022-09-29T14:32:22;14.30;99.90
2603;DHT22;1311;47.966;7.958;2022-09-29T14:34:53;14.20;99.90
2603;DHT22;1311;47.966;7.958;2022-09-29T14:37:21;14.20;99.90
2603;DHT22;1311;47.966;7.958;2022-09-29T14:39:50;14.20;99.90
2603;DHT22;1311;47.966;7.958;2022-09-29T14:42:31;14.20;99.90
2603;DHT22;1311;47.966;7.958;2022-09-29T14:44:58;14.10;99.90
2603;DHT22;1311;47.966;7.958;2022-09-29T14:47:43;14.10;99.90
2603;DHT22;1311;47.966;7.958;2022-09-29T14:50:34;14.20;99.90
2603;DHT22;1311;47.966;7.958;2022-09-29T14:53:32;14.10;99.90
2603;DHT22;1311;47.966;7.958;2022-09-29T14:56:04;14.20;99.90
2603;DHT22;1311;47.966;7.958;2022-09-29T14:58:38;14.10;99.90
2603;DHT22;1311;47.966;7.958;2022-09-29T15:01:08;14.10;99.90
2603;DHT22;1311;47.966;7.958;2022-09-29T15:03:38;14.00;99.90
2603;DHT22;1311;47.966;7.958;2022-09-29T15:06:10;14.00;99.90
2603;DHT22;1311;47.966;7.958;2022-09-29T15:08:38;13.90;99.90
2603;DHT22;1311;47.966;7.958;2022-09-29T15:13:47;13.90;99.90
2603;DHT22;1311;47.966;7.958;2022-09-29T15:16:16;13.80;99.90
2603;DHT22;1311;47.966;7.958;2022-09-29T15:18:55;13.80;99.90
2603;DHT22;1311;47.966;7.958;2022-09-29T15:21:26;13.70;99.90
2603;DHT22;1311;47.966;7.958;2022-09-29T15:24:01;13.60;99.90
2603;DHT22;1311;47.966;7.958;2022-09-29T15:26:32;13.60;99.90
2603;DHT22;1311;47.966;7.958;2022-09-29T15:29:01;13.50;99.90
2603;DHT22;1311;47.966;7.958;2022-09-29T15:31:31;13.50;99.90
2603;DHT22;1311;47.966;7.958;2022-09-29T15:33:58;13.40;99.90
2603;DHT22;1311;47.966;7.958;2022-09-29T15:36:28;13.40;99.90
2603;DHT22;1311;47.966;7.958;2022-09-29T15:38:58;13.30;99.90
2603;DHT22;1311;47.966;7.958;2022-09-29T15:41:26;13.30;99.90
2603;DHT22;1311;47.966;7.958;2022-09-29T15:43:56;13.20;99.90
2603;DHT22;1311;47.966;7.958;2022-09-29T15:46:26;13.20;99.90
2603;DHT22;1311;47.966;7.958;2022-09-29T15:51:42;13.00;99.90
2603;DHT22;1311;47.966;7.958;2022-09-29T15:54:10;13.00;99.90
2603;DHT22;1311;47.966;7.958;2022-09-29T15:56:37;12.90;99.90
2603;DHT22;1311;47.966;7.958;2022-09-29T15:59:18;12.80;99.90
2603;DHT22;1311;47.966;7.958;2022-09-29T16:01:45;12.80;99.90
2603;DHT22;1311;47.966;7.958;2022-09-29T16:04:12;12.70;99.90
2603;DHT22;1311;47.966;7.958;2022-09-29T16:06:39;12.70;99.90
2603;DHT22;1311;47.966;7.958;2022-09-29T16:09:13;12.60;99.90
2603;DHT22;1311;47.966;7.958;2022-09-29T16:11:42;12.60;99.90
2603;DHT22;1311;47.966;7.958;2022-09-29T16:14:09;12.50;99.90
2603;DHT22;1311;47.966;7.958;2022-09-29T16:16:39;12.50;99.90
2603;DHT22;1311;47.966;7.958;2022-09-29T16:19:11;12.60;99.90
2603;DHT22;1311;47.966;7.958;2022-09-29T16:21:39;12.50;99.90
2603;DHT22;1311;47.966;7.958;2022-09-29T16:24:16;12.50;99.90
2603;DHT22;1311;47.966;7.958;2022-09-29T16:26:44;12.50;99.90
2603;DHT22;1311;47.966;7.958;2022-09-29T16:29:30;12.50;99.90
2603;DHT22;1311;47.966;7.958;2022-09-29T16:31:58;12.40;99.90
2603;DHT22;1311;47.966;7.958;2022-09-29T16:34:30;12.40;99.90